createdAt,value
2023-05-13T00:01:41.965Z,10.46
2023-05-13T00:04:39.736Z,10.46
2023-05-13T00:07:37.357Z,10.48
2023-05-13T00:10:37.153Z,10.50
2023-05-13T00:13:35.656Z,10.51
2023-05-13T00:16:33.412Z,10.51
2023-05-13T00:19:30.972Z,10.50
2023-05-13T00:22:28.656Z,10.49
2023-05-13T00:25:26.173Z,10.46
2023-05-13T00:28:24.585Z,10.46
2023-05-13T00:31:22.084Z,10.47
2023-05-13T00:34:19.820Z,10.48
2023-05-13T00:37:17.645Z,10.48
2023-05-13T00:40:15.051Z,10.49
2023-05-13T00:43:12.709Z,10.49
2023-05-13T00:46:10.218Z,10.47
2023-05-13T00:49:08.069Z,10.45
2023-05-13T00:52:05.522Z,10.43
2023-05-13T00:55:03.141Z,10.42
2023-05-13T00:58:01.304Z,10.40
2023-05-13T01:00:58.757Z,10.38
2023-05-13T01:03:56.530Z,10.39
2023-05-13T01:06:54.073Z,10.38
2023-05-13T01:09:53.752Z,10.36
2023-05-13T01:12:51.399Z,10.35
2023-05-13T01:15:49.045Z,10.33
2023-05-13T01:18:46.514Z,10.32
2023-05-13T01:21:44.230Z,10.31
2023-05-13T01:24:41.903Z,10.30
2023-05-13T01:27:39.788Z,10.28
2023-05-13T01:30:37.347Z,10.26
2023-05-13T01:33:34.814Z,10.24
2023-05-13T01:36:32.479Z,10.23
2023-05-13T01:39:29.982Z,10.22
2023-05-13T01:42:27.627Z,10.21
2023-05-13T01:45:25.284Z,10.21
2023-05-13T01:48:24.260Z,10.19
2023-05-13T01:51:22.031Z,10.17
2023-05-13T01:54:19.471Z,10.16
2023-05-13T01:57:17.091Z,10.15
2023-05-13T02:00:14.585Z,10.14
2023-05-13T02:03:12.745Z,10.13
2023-05-13T02:06:10.575Z,10.13
2023-05-13T02:09:08.367Z,10.12
2023-05-13T02:12:06.197Z,10.11
2023-05-13T02:15:03.647Z,10.10
2023-05-13T02:18:01.461Z,10.11
2023-05-13T02:20:59.079Z,10.11
2023-05-13T02:23:56.805Z,10.09
2023-05-13T02:26:54.853Z,10.10
2023-05-13T02:29:52.306Z,10.09
2023-05-13T02:32:50.136Z,10.09
2023-05-13T02:35:47.656Z,10.09
2023-05-13T02:38:45.402Z,10.09
2023-05-13T02:41:44.822Z,10.08
2023-05-13T02:44:42.658Z,10.08
2023-05-13T02:47:40.860Z,10.09
2023-05-13T02:50:39.465Z,10.09
2023-05-13T02:53:37.318Z,10.10
2023-05-13T02:56:34.726Z,10.10
2023-05-13T02:59:32.444Z,10.12
2023-05-13T03:02:29.933Z,10.13
2023-05-13T03:05:29.774Z,10.14
2023-05-13T03:08:27.668Z,10.14
2023-05-13T03:11:25.117Z,10.12
2023-05-13T03:14:23.463Z,10.11
2023-05-13T03:17:20.972Z,10.11
2023-05-13T03:20:19.435Z,10.09
2023-05-13T03:23:17.014Z,10.09
2023-05-13T03:26:14.576Z,10.11
2023-05-13T03:29:12.055Z,10.13
2023-05-13T03:32:09.701Z,10.15
2023-05-13T03:35:07.470Z,10.15
2023-05-13T03:38:04.905Z,10.16
2023-05-13T03:41:02.600Z,10.18
2023-05-13T03:44:00.109Z,10.19
2023-05-13T03:46:57.741Z,10.19
2023-05-13T03:49:55.186Z,10.19
2023-05-13T03:52:52.739Z,10.20
2023-05-13T03:55:50.518Z,10.21
2023-05-13T03:58:47.980Z,10.22
2023-05-13T04:01:45.692Z,10.23
2023-05-13T04:04:43.213Z,10.23
2023-05-13T04:07:41.065Z,10.23
2023-05-13T04:10:38.451Z,10.23
2023-05-13T04:13:36.499Z,10.23
2023-05-13T04:16:34.025Z,10.24
2023-05-13T04:19:31.683Z,10.24
2023-05-13T04:22:29.295Z,10.24
2023-05-13T04:25:26.748Z,10.24
2023-05-13T04:28:24.512Z,10.25
2023-05-13T04:31:22.260Z,10.25
2023-05-13T04:34:20.039Z,10.26
2023-05-13T04:37:17.490Z,10.27
2023-05-13T04:40:15.183Z,10.28
2023-05-13T04:43:12.844Z,10.28
2023-05-13T04:46:10.378Z,10.29
2023-05-13T04:49:08.021Z,10.30
2023-05-13T04:52:06.481Z,10.33
2023-05-13T04:55:04.057Z,10.35
2023-05-13T04:58:01.449Z,10.36
2023-05-13T05:00:59.251Z,10.36
2023-05-13T05:03:56.742Z,10.36
2023-05-13T05:06:54.468Z,10.35
2023-05-13T05:09:52.329Z,10.36
2023-05-13T05:12:49.719Z,10.36
2023-05-13T05:15:47.473Z,10.36
2023-05-13T05:18:44.951Z,10.38
2023-05-13T05:21:42.960Z,10.39
2023-05-13T05:24:40.397Z,10.42
2023-05-13T05:27:38.023Z,10.44
2023-05-13T05:30:39.666Z,10.45
2023-05-13T05:33:37.819Z,10.48
2023-05-13T05:36:38.037Z,10.50
2023-05-13T05:39:36.175Z,10.51
2023-05-13T05:42:33.876Z,10.53
2023-05-13T05:45:31.283Z,10.55
2023-05-13T05:48:28.937Z,10.57
2023-05-13T05:51:26.410Z,10.58
2023-05-13T05:54:24.022Z,10.59
2023-05-13T05:57:21.748Z,10.62
2023-05-13T06:00:19.967Z,10.63
2023-05-13T06:03:18.598Z,10.64
2023-05-13T06:06:16.238Z,10.66
2023-05-13T06:09:13.967Z,10.68
2023-05-13T06:12:11.371Z,10.73
2023-05-13T06:15:11.012Z,10.78
2023-05-13T06:18:08.506Z,10.83
2023-05-13T06:21:06.346Z,10.88
2023-05-13T06:24:04.920Z,10.94
2023-05-13T06:27:02.802Z,10.99
2023-05-13T06:30:00.406Z,11.02
2023-05-13T06:33:02.208Z,11.06
2023-05-13T06:36:00.233Z,11.10
2023-05-13T06:38:57.968Z,11.12
2023-05-13T06:41:55.445Z,11.13
2023-05-13T06:44:53.120Z,11.13
2023-05-13T06:47:50.618Z,11.14
2023-05-13T06:50:50.056Z,11.14
2023-05-13T06:53:47.434Z,11.13
2023-05-13T06:56:45.218Z,11.13
2023-05-13T06:59:42.624Z,11.14
2023-05-13T07:02:40.467Z,11.19
2023-05-13T07:05:37.920Z,11.26
2023-05-13T07:08:35.717Z,11.31
2023-05-13T07:11:33.129Z,11.36
2023-05-13T07:14:30.762Z,11.40
2023-05-13T07:17:28.299Z,11.45
2023-05-13T07:20:26.966Z,11.50
2023-05-13T07:23:24.668Z,11.54
2023-05-13T07:26:22.457Z,11.59
2023-05-13T07:29:20.311Z,11.62
2023-05-13T07:32:17.842Z,11.63
2023-05-13T07:35:17.063Z,11.63
2023-05-13T07:38:14.612Z,11.65
2023-05-13T07:41:12.371Z,11.65
2023-05-13T07:44:13.158Z,11.63
2023-05-13T07:47:10.931Z,11.61
2023-05-13T07:50:08.979Z,11.59
2023-05-13T07:53:06.775Z,11.58
2023-05-13T07:56:05.029Z,11.56
2023-05-13T07:59:02.676Z,11.59
2023-05-13T08:02:00.479Z,11.63
2023-05-13T08:04:58.244Z,11.65
2023-05-13T08:07:55.757Z,11.68
2023-05-13T08:10:53.468Z,11.72
2023-05-13T08:13:51.330Z,11.77
2023-05-13T08:16:49.255Z,11.80
2023-05-13T08:19:47.200Z,11.91
2023-05-13T08:22:45.012Z,12.06
2023-05-13T08:25:42.393Z,12.18
2023-05-13T08:28:40.170Z,12.25
2023-05-13T08:31:37.996Z,12.28
2023-05-13T08:34:35.797Z,12.26
2023-05-13T08:37:33.494Z,12.21
2023-05-13T08:40:30.969Z,12.16
2023-05-13T08:43:28.726Z,12.10
2023-05-13T08:46:26.358Z,12.07
2023-05-13T08:49:24.001Z,12.03
2023-05-13T08:52:22.627Z,12.00
2023-05-13T08:55:20.446Z,11.98
2023-05-13T08:58:18.228Z,11.97
2023-05-13T09:01:15.725Z,11.94
2023-05-13T09:04:13.564Z,11.94
2023-05-13T09:07:11.605Z,11.93
2023-05-13T09:10:09.349Z,11.96
2023-05-13T09:13:07.595Z,12.06
2023-05-13T09:16:05.177Z,12.14
2023-05-13T09:19:03.247Z,12.18
2023-05-13T09:22:00.903Z,12.20
2023-05-13T09:24:58.648Z,12.28
2023-05-13T09:27:58.768Z,12.42
2023-05-13T09:30:58.268Z,12.59
2023-05-13T09:33:55.816Z,12.71
2023-05-13T09:36:53.619Z,12.75
2023-05-13T09:39:51.268Z,12.73
2023-05-13T09:42:48.745Z,12.74
2023-05-13T09:45:46.392Z,12.80
2023-05-13T09:48:43.800Z,12.89
2023-05-13T09:51:41.828Z,12.96
2023-05-13T09:54:39.223Z,13.04
2023-05-13T09:57:36.841Z,13.21
2023-05-13T10:00:36.701Z,13.43
2023-05-13T10:03:35.827Z,13.71
2023-05-13T10:06:33.640Z,13.94
2023-05-13T10:09:31.091Z,14.07
2023-05-13T10:12:28.865Z,14.14
2023-05-13T10:15:26.322Z,14.19
2023-05-13T10:18:24.091Z,14.19
2023-05-13T10:21:22.034Z,14.16
2023-05-13T10:24:19.470Z,14.11
2023-05-13T10:27:17.128Z,14.09
2023-05-13T10:30:14.604Z,14.00
2023-05-13T10:33:12.318Z,13.89
2023-05-13T10:36:09.895Z,13.81
2023-05-13T10:39:07.635Z,13.75
2023-05-13T10:42:05.346Z,13.67
2023-05-13T10:45:02.857Z,13.58
2023-05-13T10:48:00.747Z,13.52
2023-05-13T10:50:58.261Z,13.43
2023-05-13T10:53:55.953Z,13.33
2023-05-13T10:56:53.377Z,13.23
2023-05-13T10:59:51.339Z,13.15
2023-05-13T11:02:49.146Z,13.09
2023-05-13T11:05:47.297Z,13.04
2023-05-13T11:08:44.925Z,12.99
2023-05-13T11:11:42.374Z,12.96
2023-05-13T11:14:40.146Z,12.95
2023-05-13T11:17:37.634Z,12.97
2023-05-13T11:20:48.695Z,13.01
2023-05-13T11:23:49.575Z,13.07
2023-05-13T11:26:47.683Z,13.12
2023-05-13T11:29:45.333Z,13.17
2023-05-13T11:32:42.811Z,13.22
2023-05-13T11:35:40.560Z,13.22
2023-05-13T11:38:37.963Z,13.19
2023-05-13T11:41:36.825Z,13.16
2023-05-13T11:44:34.447Z,13.15
2023-05-13T11:47:32.018Z,13.15
2023-05-13T11:50:30.248Z,13.14
2023-05-13T11:53:27.725Z,13.16
2023-05-13T11:56:25.434Z,13.17
2023-05-13T11:59:22.957Z,13.18
2023-05-13T12:02:20.643Z,13.17
2023-05-13T12:05:18.539Z,13.14
2023-05-13T12:08:16.016Z,13.14
2023-05-13T12:11:13.894Z,13.19
2023-05-13T12:14:11.325Z,13.28
2023-05-13T12:17:08.939Z,13.35
2023-05-13T12:20:06.524Z,13.41
2023-05-13T12:23:04.837Z,13.42
2023-05-13T12:26:02.548Z,13.41
2023-05-13T12:29:00.187Z,13.40
2023-05-13T12:31:57.835Z,13.37
2023-05-13T12:34:55.311Z,13.32
2023-05-13T12:37:53.336Z,13.27
2023-05-13T12:40:51.043Z,13.23
2023-05-13T12:43:48.487Z,13.19
2023-05-13T12:46:46.350Z,13.15
2023-05-13T12:49:43.781Z,13.12
2023-05-13T12:52:41.520Z,13.10
2023-05-13T12:55:40.315Z,13.10
2023-05-13T12:58:38.267Z,13.10
2023-05-13T13:01:35.934Z,13.10
2023-05-13T13:04:33.374Z,13.11
2023-05-13T13:07:31.020Z,13.11
2023-05-13T13:10:28.422Z,13.10
2023-05-13T13:13:26.202Z,13.11
2023-05-13T13:16:23.602Z,13.12
2023-05-13T13:19:21.357Z,13.14
2023-05-13T13:22:18.832Z,13.17
2023-05-13T13:25:16.535Z,13.19
2023-05-13T13:28:13.980Z,13.22
2023-05-13T13:31:12.303Z,13.23
2023-05-13T13:34:12.381Z,13.24
2023-05-13T13:37:09.842Z,13.21
2023-05-13T13:40:08.345Z,13.17
2023-05-13T13:43:05.726Z,13.10
2023-05-13T13:46:03.527Z,13.03
2023-05-13T13:49:03.829Z,13.00
2023-05-13T13:52:08.107Z,13.01
2023-05-13T13:55:05.565Z,13.01
2023-05-13T13:58:03.211Z,13.02
2023-05-13T14:01:00.906Z,13.01
2023-05-13T14:03:58.404Z,13.01
2023-05-13T14:06:58.211Z,13.01
2023-05-13T14:09:55.664Z,13.01
2023-05-13T14:12:53.886Z,13.02
2023-05-13T14:15:51.282Z,13.03
2023-05-13T14:18:49.246Z,13.04
2023-05-13T14:21:46.903Z,13.06
2023-05-13T14:24:44.342Z,13.08
2023-05-13T14:27:42.023Z,13.10
2023-05-13T14:30:39.478Z,13.12
2023-05-13T14:33:37.102Z,13.13
2023-05-13T14:36:34.508Z,13.15
2023-05-13T14:39:32.287Z,13.14
2023-05-13T14:42:29.842Z,13.12
2023-05-13T14:45:27.496Z,13.10
2023-05-13T14:48:25.264Z,13.08
2023-05-13T14:51:22.727Z,13.04
2023-05-13T14:54:20.345Z,13.02
2023-05-13T14:57:20.301Z,13.02
2023-05-13T15:00:17.685Z,13.01
2023-05-13T15:03:15.485Z,13.00
2023-05-13T15:06:12.946Z,12.97
2023-05-13T15:09:10.607Z,12.96
2023-05-13T15:12:08.022Z,12.94
2023-05-13T15:15:05.716Z,12.94
2023-05-13T15:18:03.621Z,12.93
2023-05-13T15:21:01.111Z,12.91
2023-05-13T15:23:58.840Z,12.89
2023-05-13T15:26:56.284Z,12.86
2023-05-13T15:29:53.936Z,12.84
2023-05-13T15:32:51.687Z,12.82
2023-05-13T15:35:49.112Z,12.79
2023-05-13T15:38:46.731Z,12.78
2023-05-13T15:41:44.150Z,12.77
2023-05-13T15:44:41.800Z,12.77
2023-05-13T15:47:39.365Z,12.77
2023-05-13T15:50:37.080Z,12.77
2023-05-13T15:53:34.519Z,12.79
2023-05-13T15:56:32.065Z,12.81
2023-05-13T15:59:30.328Z,12.82
2023-05-13T16:02:29.727Z,12.84
2023-05-13T16:05:27.751Z,12.84
2023-05-13T16:08:25.157Z,12.84
2023-05-13T16:11:23.045Z,12.84
2023-05-13T16:14:20.492Z,12.83
2023-05-13T16:17:18.701Z,12.82
2023-05-13T16:20:16.107Z,12.81
2023-05-13T16:23:14.007Z,12.82
2023-05-13T16:26:12.293Z,12.82
2023-05-13T16:29:09.751Z,12.83
2023-05-13T16:32:07.721Z,12.83
2023-05-13T16:35:05.182Z,12.83
2023-05-13T16:38:03.157Z,12.84
2023-05-13T16:41:01.895Z,12.85
2023-05-13T16:43:59.344Z,12.85
2023-05-13T16:46:57.168Z,12.85
2023-05-13T16:49:56.198Z,12.83
2023-05-13T16:52:54.940Z,12.80
2023-05-13T16:55:52.870Z,12.78
2023-05-13T16:58:50.261Z,12.76
2023-05-13T17:01:48.347Z,12.75
2023-05-13T17:04:45.817Z,12.74
2023-05-13T17:07:43.707Z,12.72
2023-05-13T17:10:41.699Z,12.71
2023-05-13T17:13:39.747Z,12.69
2023-05-13T17:16:37.718Z,12.67
2023-05-13T17:19:35.599Z,12.65
2023-05-13T17:22:33.546Z,12.62
2023-05-13T17:25:31.424Z,12.61
2023-05-13T17:28:29.395Z,12.59
2023-05-13T17:31:26.891Z,12.57
2023-05-13T17:34:24.826Z,12.56
2023-05-13T17:37:22.614Z,12.56
2023-05-13T17:40:20.191Z,12.53
2023-05-13T17:43:18.268Z,12.51
2023-05-13T17:46:15.710Z,12.49
2023-05-13T17:49:13.772Z,12.49
2023-05-13T17:52:11.349Z,12.49
2023-05-13T17:55:09.424Z,12.50
2023-05-13T17:58:06.904Z,12.49
2023-05-13T18:01:04.735Z,12.49
2023-05-13T18:04:02.102Z,12.48
2023-05-13T18:06:59.959Z,12.46
2023-05-13T18:09:57.404Z,12.43
2023-05-13T18:12:55.326Z,12.40
2023-05-13T18:15:52.796Z,12.37
2023-05-13T18:18:50.781Z,12.34
2023-05-13T18:21:48.196Z,12.32
2023-05-13T18:24:45.963Z,12.30
2023-05-13T18:27:43.391Z,12.30
2023-05-13T18:30:41.276Z,12.28
2023-05-13T18:33:38.695Z,12.26
2023-05-13T18:36:36.661Z,12.23
2023-05-13T18:39:34.135Z,12.20
2023-05-13T18:42:31.942Z,12.17
2023-05-13T18:45:29.437Z,12.14
2023-05-13T18:48:27.319Z,12.13
2023-05-13T18:51:24.757Z,12.12
2023-05-13T18:54:23.245Z,12.10
2023-05-13T18:57:20.868Z,12.10
2023-05-13T19:00:19.037Z,12.10
2023-05-13T19:03:16.771Z,12.10
2023-05-13T19:06:16.229Z,12.10
2023-05-13T19:09:14.916Z,12.08
2023-05-13T19:12:12.785Z,12.07
2023-05-13T19:15:10.320Z,12.07
2023-05-13T19:18:08.310Z,12.07
2023-05-13T19:21:05.860Z,12.08
2023-05-13T19:24:04.360Z,12.07
2023-05-13T19:27:02.183Z,12.07
2023-05-13T19:30:00.028Z,12.07
2023-05-13T19:32:57.910Z,12.07
2023-05-13T19:35:55.411Z,12.08
2023-05-13T19:38:53.212Z,12.09
2023-05-13T19:41:50.666Z,12.10
2023-05-13T19:44:48.531Z,12.11
2023-05-13T19:47:46.942Z,12.09
2023-05-13T19:50:44.431Z,12.09
2023-05-13T19:53:43.385Z,12.07
2023-05-13T19:56:41.368Z,12.04
2023-05-13T19:59:42.153Z,12.02
2023-05-13T20:02:39.861Z,12.01
2023-05-13T20:05:38.110Z,12.00
2023-05-13T20:08:36.045Z,11.98
2023-05-13T20:11:33.886Z,11.97
2023-05-13T20:14:31.415Z,11.97
2023-05-13T20:17:30.936Z,11.96
2023-05-13T20:20:28.814Z,11.95
2023-05-13T20:23:26.676Z,11.95
2023-05-13T20:26:26.289Z,11.93
2023-05-13T20:29:23.721Z,11.94
2023-05-13T20:32:25.190Z,11.94
2023-05-13T20:35:22.693Z,11.95
2023-05-13T20:38:20.566Z,11.96
2023-05-13T20:41:18.221Z,11.97
2023-05-13T20:44:17.713Z,11.97
2023-05-13T20:47:15.563Z,11.98
2023-05-13T20:50:13.361Z,11.98
2023-05-13T20:53:10.804Z,11.98
2023-05-13T20:56:10.414Z,11.99
2023-05-13T20:59:07.880Z,12.00
2023-05-13T21:02:05.750Z,11.99
2023-05-13T21:05:03.748Z,11.98
2023-05-13T21:08:01.205Z,11.98
2023-05-13T21:10:59.033Z,11.98
2023-05-13T21:13:56.483Z,11.98
2023-05-13T21:16:54.201Z,11.98
2023-05-13T21:19:51.598Z,11.98
2023-05-13T21:22:49.480Z,11.98
2023-05-13T21:25:47.307Z,11.98
2023-05-13T21:28:44.757Z,11.97
2023-05-13T21:31:43.028Z,11.97
2023-05-13T21:34:41.007Z,11.96
2023-05-13T21:37:38.831Z,11.95
2023-05-13T21:40:36.615Z,11.94
2023-05-13T21:43:33.984Z,11.92
2023-05-13T21:46:31.837Z,11.91
2023-05-13T21:49:29.252Z,11.90
2023-05-13T21:52:27.160Z,11.90
2023-05-13T21:55:24.601Z,11.89
2023-05-13T21:58:23.554Z,11.87
2023-05-13T22:01:21.329Z,11.85
2023-05-13T22:04:19.602Z,11.84
2023-05-13T22:07:17.438Z,11.85
2023-05-13T22:10:14.866Z,11.84
2023-05-13T22:13:12.674Z,11.84
2023-05-13T22:16:10.327Z,11.84
2023-05-13T22:19:08.356Z,11.84
2023-05-13T22:22:06.348Z,11.83
2023-05-13T22:25:04.746Z,11.82
2023-05-13T22:28:02.196Z,11.82
2023-05-13T22:31:00.198Z,11.82
2023-05-13T22:33:57.661Z,11.82
2023-05-13T22:36:55.654Z,11.82
2023-05-13T22:39:53.097Z,11.82
2023-05-13T22:42:51.047Z,11.82
2023-05-13T22:45:49.036Z,11.81
2023-05-13T22:48:46.901Z,11.81
2023-05-13T22:51:44.860Z,11.81
2023-05-13T22:54:42.241Z,11.81
2023-05-13T22:57:40.101Z,11.81
2023-05-13T23:00:37.482Z,11.80
2023-05-13T23:03:35.466Z,11.79
2023-05-13T23:06:32.917Z,11.78
2023-05-13T23:09:30.734Z,11.77
2023-05-13T23:12:28.189Z,11.77
2023-05-13T23:15:25.973Z,11.76
2023-05-13T23:18:23.356Z,11.75
2023-05-13T23:21:21.363Z,11.74
2023-05-13T23:24:18.793Z,11.73
2023-05-13T23:27:16.738Z,11.72
2023-05-13T23:30:14.123Z,11.71
2023-05-13T23:33:12.056Z,11.71
2023-05-13T23:36:09.507Z,11.70
2023-05-13T23:39:07.808Z,11.69
2023-05-13T23:42:05.805Z,11.67
2023-05-13T23:45:03.400Z,11.67
2023-05-13T23:48:01.540Z,11.66
2023-05-13T23:50:59.047Z,11.65
2023-05-13T23:53:57.043Z,11.64
2023-05-13T23:56:54.491Z,11.63
2023-05-13T23:59:52.591Z,11.61
